WetterOnline ( http://www.wetteronline.de )

Wetter aktuell Ostalb (in 700m)

Aktuelles Wetter: Geislingen/Stötten (737m)

6-stündlich | Neueste Meldungen
Ortszeit Temperatur Wetter
Mi, 14.11. 13:00 6.4° C wolkenlos
Mi, 14.11. 7:00 4.2° C wolkenlos
Mi, 14.11. 1:00 5.4° C wolkenlos
Di, 13.11. 19:00 6.0° C wolkenlos
Di, 13.11. 13:00 8.5° C leichter Regen
Di, 13.11. 7:00 8.3° C Sprühregen
Di, 13.11. 1:00 13.5° C bewölkt
Mo, 12.11. 19:00 12.2° C leicht bewölkt
Ortszeit Temperatur Wetter
Mi, 14.11. 16:00 3.8° C Nebel
Mi, 14.11. 15:50 3.8° C Nebel
Mi, 14.11. 15:40 3.8° C Nebel
Mi, 14.11. 15:30 3.9° C Nebel
Mi, 14.11. 15:20 3.9° C Nebel
Mi, 14.11. 15:10 4.0° C Nebel
Mi, 14.11. 15:00 4.3° C leicht bewölkt
Mi, 14.11. 14:30 5.3° C wolkenlos
Mi, 14.11. 14:00 6.6° C wolkenlos
Mi, 14.11. 13:30 6.8° C wolkenlos
Mi, 14.11. 13:00 6.4° C wolkenlos
Ortszeit Relative Feuchte Sichtweite
Mi, 14.11. 13:00 84% 35 km
Mi, 14.11. 7:00 97% 6 km
Mi, 14.11. 1:00 89% 70 km
Di, 13.11. 19:00 84% 70 km
Di, 13.11. 13:00 89% 70 km
Di, 13.11. 7:00 98% 2.1 km
Di, 13.11. 1:00 63% 70 km
Mo, 12.11. 19:00 71% 55 km
Ortszeit Relative Feuchte Sichtweite
Mi, 14.11. 16:00 99% 0.2 km
Mi, 14.11. 15:50 99% -
Mi, 14.11. 15:40 99% -
Mi, 14.11. 15:30 99% 0.4 km
Mi, 14.11. 15:20 99% -
Mi, 14.11. 15:10 99% -
Mi, 14.11. 15:00 95% 5.0 km
Mi, 14.11. 14:30 88% 15 km
Mi, 14.11. 14:00 82% 22 km
Mi, 14.11. 13:30 82% 27 km
Mi, 14.11. 13:00 84% 35 km
Ortszeit Niederschlagsmenge Niederschlagsart
Mi, 14.11. 13:00 0.0 l/m2 in 6 Std. -
Mi, 14.11. 7:00 0.0 l/m2 in 12 Std. -
Mi, 14.11. 1:00 0.0 l/m2 in 6 Std. -
Di, 13.11. 19:00 0.5 l/m2 in 12 Std. Regen
Di, 13.11. 13:00 0.5 l/m2 in 6 Std. Regen
Di, 13.11. 7:00 0.1 l/m2 in 12 Std. Regen
Di, 13.11. 1:00 0.0 l/m2 in 6 Std. -
Mo, 12.11. 19:00 0.0 l/m2 in 12 Std. -
Ortszeit Niederschlagsmenge Niederschlagsart
Mi, 14.11. 16:00 0.0 l/m2 in 1 Std. -
Mi, 14.11. 15:50 keine Meldung -
Mi, 14.11. 15:40 keine Meldung -
Mi, 14.11. 15:30 0.0 l/m2 in 1 Std. -
Mi, 14.11. 15:20 keine Meldung -
Mi, 14.11. 15:10 keine Meldung -
Mi, 14.11. 15:00 0.0 l/m2 in 1 Std. -
Mi, 14.11. 14:30 0.0 l/m2 in 1 Std. -
Mi, 14.11. 14:00 0.0 l/m2 in 1 Std. -
Mi, 14.11. 13:30 0.0 l/m2 in 1 Std. -
Mi, 14.11. 13:00 0.0 l/m2 in 1 Std. -
Ortszeit Stärke Spitze Richtung
km/h Bft. km/h Grad Sektor
Mi, 14.11. 13:00 14 3 29 110° O
Mi, 14.11. 7:00 11 2 22 120° SO
Mi, 14.11. 1:00 7 2 20 240° SW
Di, 13.11. 19:00 18 3 40 230° SW
Di, 13.11. 13:00 14 3 40 280° W
Di, 13.11. 7:00 20 4 39 290° W
Di, 13.11. 1:00 7 2 29 170° S
Mo, 12.11. 19:00 9 2 24 160° S
Ortszeit Stärke Spitze Richtung
km/h Bft. km/h Grad Sektor
Mi, 14.11. 16:00 19 3 28 100° O
Mi, 14.11. 15:50 19 3 - 100° O
Mi, 14.11. 15:40 19 3 - 100° O
Mi, 14.11. 15:30 17 3 22 100° O
Mi, 14.11. 15:20 17 3 - 100° O
Mi, 14.11. 15:10 18 3 - 100° O
Mi, 14.11. 15:00 18 3 25 110° O
Mi, 14.11. 14:30 18 3 25 100° O
Mi, 14.11. 14:00 15 3 24 100° O
Mi, 14.11. 13:30 13 3 24 110° O
Mi, 14.11. 13:00 14 3 25 110° O
Ortszeit Untergrenze Bedeckung Gattung
total tief tief mittel hoch
Mi, 14.11. 13:00 - 0/8 0/8 - - -
Mi, 14.11. 7:00 - 0/8 0/8 - - -
Mi, 14.11. 1:00 - 0/8 0/8 - - -
Di, 13.11. 19:00 - 0/8 0/8 - - -
Di, 13.11. 13:00 1500 m 8/8 8/8 - - -
Di, 13.11. 7:00 60 m 8/8 7/8 - - -
Di, 13.11. 1:00 1800 m 7/8 7/8 - - -
Mo, 12.11. 19:00 3300 m 2/8 2/8 - - -
Ortszeit Bedeckungsgrad in Achtel und Wolkenuntergrenze
Mi, 14.11. 16:00 8(<30m)
Mi, 14.11. 15:50 8(<30m)
Mi, 14.11. 15:40 8(<30m)
Mi, 14.11. 15:30 8(<30m)
Mi, 14.11. 15:20 8(<30m)
Mi, 14.11. 15:10 8(<30m)
Mi, 14.11. 15:00 4(<30m)
Mi, 14.11. 14:30 keine Wolken
Mi, 14.11. 14:00 keine Wolken
Mi, 14.11. 13:30 keine Wolken
Mi, 14.11. 13:00 keine Wolken
Ortszeit Luftdruck NN (hPa) Tendenz (hPa in 3 Std.)
Mi, 14.11. 13:00 1030 - 0,8
Mi, 14.11. 7:00 1032 - 0,6
Mi, 14.11. 1:00 1033 - 0,3
Di, 13.11. 19:00 1032 + 1,2
Di, 13.11. 13:00 1028 + 0,7
Di, 13.11. 7:00 1024 + 1,5
Di, 13.11. 1:00 1021 - 0,2
Mo, 12.11. 19:00 1020 + 1,7
Ortszeit Luftdruck NN (hPa) Tendenz (hPa in 3 Std.)
Mi, 14.11. 16:00 1030 - 0,7
Mi, 14.11. 15:50 1030 keine Meldung
Mi, 14.11. 15:40 1030 keine Meldung
Mi, 14.11. 15:30 1030 - 0,8
Mi, 14.11. 15:20 1030 keine Meldung
Mi, 14.11. 15:10 1030 keine Meldung
Mi, 14.11. 15:00 1030 - 1,0
Mi, 14.11. 14:30 1030 - 1,1
Mi, 14.11. 14:00 1030 - 1,0
Mi, 14.11. 13:30 1030 - 1,1
Mi, 14.11. 13:00 1030 - 0,8
Ortszeit Schneehöhe (cm)
Mi, 14.11. 13:00 0
Mi, 14.11. 7:00 0
Mi, 14.11. 1:00 0
Di, 13.11. 19:00 0
Di, 13.11. 13:00 0
Di, 13.11. 7:00 0
Di, 13.11. 1:00 0
Mo, 12.11. 19:00 0
Ortszeit Schneehöhe (cm)
Mi, 14.11. 16:00 0
Mi, 14.11. 15:50 0
Mi, 14.11. 15:40 0
Mi, 14.11. 15:30 0
Mi, 14.11. 15:20 0
Mi, 14.11. 15:10 0
Mi, 14.11. 15:00 0
Mi, 14.11. 14:30 0
Mi, 14.11. 14:00 0
Mi, 14.11. 13:30 0
Mi, 14.11. 13:00 0
Link zu dieser Seite / Seite empfehlen

Das Wetter in ...